Huntsville, Alabama
Current Conditions -  °F | °C
As of 2:53 PM on Tuesday 27 Jan 2015 (Local Time) from KHSV Reporting Station
Scattered Clouds Scattered Clouds  
Wind Chill: 53°   Ceiling: Unl
Heat Index: 53°   Visibility: 10mi
Dew Point: 30°   Wind: 9mph
Humidity: 41%   Direction: 300°WNW
Pressure: 30.05"   Gusts: NA
Location:  34.73°N, 86.58°W
Report Text: KHSV 272053Z 30008KT 10SM SCT050 12/M01 A3005 RMK AO2 SLP177 T01171011 53003
Loading
Personal Weather Stations






























Interactive Weather Map New forecast layout! Learn more

10-Day Weather Forecast

Advertisements
Track Severe Weather on mobile